sensor_id;sensor_type;location;lat;lon;timestamp;pressure;altitude;pressure_sealevel;temperature;humidity
19150;BME280;9707;49.158;8.632;2023-07-09T00:01:15;100633.59;;;30.15;35.57
19150;BME280;9707;49.158;8.632;2023-07-09T00:03:43;100639.25;;;30.14;35.63
19150;BME280;9707;49.158;8.632;2023-07-09T00:06:08;100647.72;;;30.12;35.72
19150;BME280;9707;49.158;8.632;2023-07-09T00:08:34;100637.91;;;30.10;36.04
19150;BME280;9707;49.158;8.632;2023-07-09T00:10:59;100641.66;;;30.09;35.84
19150;BME280;9707;49.158;8.632;2023-07-09T00:13:26;100638.25;;;30.07;35.87
19150;BME280;9707;49.158;8.632;2023-07-09T00:16:00;100644.78;;;30.06;35.69
19150;BME280;9707;49.158;8.632;2023-07-09T00:18:26;100640.31;;;30.05;36.01
19150;BME280;9707;49.158;8.632;2023-07-09T00:20:51;100648.75;;;30.03;35.92
19150;BME280;9707;49.158;8.632;2023-07-09T00:23:17;100645.28;;;30.01;35.80
19150;BME280;9707;49.158;8.632;2023-07-09T00:25:44;100654.41;;;30.02;36.00
19150;BME280;9707;49.158;8.632;2023-07-09T00:28:14;100653.75;;;30.00;35.70
19150;BME280;9707;49.158;8.632;2023-07-09T00:30:40;100651.16;;;29.98;36.04
19150;BME280;9707;49.158;8.632;2023-07-09T00:33:10;100650.28;;;29.98;35.87
19150;BME280;9707;49.158;8.632;2023-07-09T00:35:36;100652.38;;;29.96;35.98
19150;BME280;9707;49.158;8.632;2023-07-09T00:38:01;100654.44;;;29.94;36.01
19150;BME280;9707;49.158;8.632;2023-07-09T00:40:27;100651.00;;;29.92;36.21
19150;BME280;9707;49.158;8.632;2023-07-09T00:42:54;100648.44;;;29.90;36.02
19150;BME280;9707;49.158;8.632;2023-07-09T00:45:23;100646.72;;;29.89;36.16
19150;BME280;9707;49.158;8.632;2023-07-09T00:47:59;100654.13;;;29.89;35.92
19150;BME280;9707;49.158;8.632;2023-07-09T00:50:35;100653.25;;;29.88;36.04
19150;BME280;9707;49.158;8.632;2023-07-09T00:53:10;100652.59;;;29.86;35.88
19150;BME280;9707;49.158;8.632;2023-07-09T00:55:40;100649.13;;;29.84;36.05
19150;BME280;9707;49.158;8.632;2023-07-09T00:58:10;100657.53;;;29.83;36.12
19150;BME280;9707;49.158;8.632;2023-07-09T01:00:47;100654.81;;;29.83;36.24
19150;BME280;9707;49.158;8.632;2023-07-09T01:03:36;100660.50;;;29.81;36.27
19150;BME280;9707;49.158;8.632;2023-07-09T01:06:02;100666.16;;;29.80;36.19
19150;BME280;9707;49.158;8.632;2023-07-09T01:08:32;100660.84;;;29.78;36.21
19150;BME280;9707;49.158;8.632;2023-07-09T01:10:58;100665.47;;;29.78;36.00
19150;BME280;9707;49.158;8.632;2023-07-09T01:13:24;100663.75;;;29.77;35.91
19150;BME280;9707;49.158;8.632;2023-07-09T01:15:51;100663.75;;;29.77;35.97
19150;BME280;9707;49.158;8.632;2023-07-09T01:18:17;100668.56;;;29.75;36.16
19150;BME280;9707;49.158;8.632;2023-07-09T01:20:42;100664.13;;;29.74;36.14
19150;BME280;9707;49.158;8.632;2023-07-09T01:23:09;100669.78;;;29.72;36.12
19150;BME280;9707;49.158;8.632;2023-07-09T01:25:36;100664.47;;;29.71;36.11
19150;BME280;9707;49.158;8.632;2023-07-09T01:28:03;100669.06;;;29.70;36.17
19150;BME280;9707;49.158;8.632;2023-07-09T01:30:32;100675.78;;;29.68;36.36
19150;BME280;9707;49.158;8.632;2023-07-09T01:32:59;100674.06;;;29.67;36.08
19150;BME280;9707;49.158;8.632;2023-07-09T01:35:28;100679.56;;;29.67;36.46
19150;BME280;9707;49.158;8.632;2023-07-09T01:37:54;100671.50;;;29.65;36.33
19150;BME280;9707;49.158;8.632;2023-07-09T01:40:22;100684.38;;;29.65;36.14
19150;BME280;9707;49.158;8.632;2023-07-09T01:42:49;100679.94;;;29.64;36.08
19150;BME280;9707;49.158;8.632;2023-07-09T01:45:15;100672.69;;;29.63;36.17
19150;BME280;9707;49.158;8.632;2023-07-09T01:47:40;100663.78;;;29.61;36.28
19150;BME280;9707;49.158;8.632;2023-07-09T01:50:08;100669.28;;;29.61;36.37
19150;BME280;9707;49.158;8.632;2023-07-09T01:52:36;100662.09;;;29.60;36.16
19150;BME280;9707;49.158;8.632;2023-07-09T01:55:02;100657.63;;;29.59;36.43
19150;BME280;9707;49.158;8.632;2023-07-09T01:57:29;100660.38;;;29.59;36.17
19150;BME280;9707;49.158;8.632;2023-07-09T02:00:00;100666.88;;;29.58;36.28
19150;BME280;9707;49.158;8.632;2023-07-09T02:02:26;100662.41;;;29.57;36.32
19150;BME280;9707;49.158;8.632;2023-07-09T02:04:54;100657.97;;;29.56;36.44
19150;BME280;9707;49.158;8.632;2023-07-09T02:07:20;100662.59;;;29.55;36.52
19150;BME280;9707;49.158;8.632;2023-07-09T02:09:47;100659.13;;;29.53;36.56
19150;BME280;9707;49.158;8.632;2023-07-09T02:12:13;100656.56;;;29.52;36.33
19150;BME280;9707;49.158;8.632;2023-07-09T02:14:40;100658.63;;;29.50;36.68
19150;BME280;9707;49.158;8.632;2023-07-09T02:17:06;100656.91;;;29.49;36.38
19150;BME280;9707;49.158;8.632;2023-07-09T02:19:31;100655.19;;;29.48;36.60
19150;BME280;9707;49.158;8.632;2023-07-09T02:21:57;100655.38;;;29.46;36.67
19150;BME280;9707;49.158;8.632;2023-07-09T02:24:23;100651.75;;;29.46;36.65
19150;BME280;9707;49.158;8.632;2023-07-09T02:26:57;100654.50;;;29.46;36.63
19150;BME280;9707;49.158;8.632;2023-07-09T02:29:23;100655.53;;;29.45;36.20
19150;BME280;9707;49.158;8.632;2023-07-09T02:31:50;100651.09;;;29.44;36.60
19150;BME280;9707;49.158;8.632;2023-07-09T02:34:16;100661.19;;;29.43;36.38
19150;BME280;9707;49.158;8.632;2023-07-09T02:36:42;100655.72;;;29.43;36.54
19150;BME280;9707;49.158;8.632;2023-07-09T02:39:12;100655.88;;;29.42;36.62
19150;BME280;9707;49.158;8.632;2023-07-09T02:41:41;100667.03;;;29.40;36.43
19150;BME280;9707;49.158;8.632;2023-07-09T02:44:07;100657.94;;;29.40;36.31
19150;BME280;9707;49.158;8.632;2023-07-09T02:46:33;100661.72;;;29.39;36.38
19150;BME280;9707;49.158;8.632;2023-07-09T02:48:58;100666.19;;;29.40;36.27
19150;BME280;9707;49.158;8.632;2023-07-09T02:51:24;100669.97;;;29.39;36.38
19150;BME280;9707;49.158;8.632;2023-07-09T02:53:53;100669.97;;;29.39;36.49
19150;BME280;9707;49.158;8.632;2023-07-09T02:56:18;100671.84;;;29.38;36.16
19150;BME280;9707;49.158;8.632;2023-07-09T02:58:44;100676.66;;;29.36;36.49
19150;BME280;9707;49.158;8.632;2023-07-09T03:01:09;100677.50;;;29.37;36.73
19150;BME280;9707;49.158;8.632;2023-07-09T03:03:34;100671.16;;;29.36;36.23
19150;BME280;9707;49.158;8.632;2023-07-09T03:06:00;100671.34;;;29.35;36.31
19150;BME280;9707;49.158;8.632;2023-07-09T03:08:28;100670.31;;;29.36;36.56
19150;BME280;9707;49.158;8.632;2023-07-09T03:10:53;100664.13;;;29.34;36.47
19150;BME280;9707;49.158;8.632;2023-07-09T03:13:19;100672.38;;;29.34;36.58
19150;BME280;9707;49.158;8.632;2023-07-09T03:15:54;100680.59;;;29.34;36.30
19150;BME280;9707;49.158;8.632;2023-07-09T03:18:19;100687.09;;;29.33;36.67
19150;BME280;9707;49.158;8.632;2023-07-09T03:20:44;100689.16;;;29.31;36.46
19150;BME280;9707;49.158;8.632;2023-07-09T03:23:09;100694.66;;;29.31;36.63
19150;BME280;9707;49.158;8.632;2023-07-09T03:25:40;100701.19;;;29.30;36.39
19150;BME280;9707;49.158;8.632;2023-07-09T03:28:05;100696.72;;;29.29;36.44
19150;BME280;9707;49.158;8.632;2023-07-09T03:30:31;100694.81;;;29.29;36.27
19150;BME280;9707;49.158;8.632;2023-07-09T03:32:56;100703.22;;;29.28;36.41
19150;BME280;9707;49.158;8.632;2023-07-09T03:35:21;100697.06;;;29.26;36.50
19150;BME280;9707;49.158;8.632;2023-07-09T03:37:46;100702.53;;;29.26;36.46
19150;BME280;9707;49.158;8.632;2023-07-09T03:40:21;100706.31;;;29.25;36.50
19150;BME280;9707;49.158;8.632;2023-07-09T03:42:46;100713.69;;;29.24;36.49
19150;BME280;9707;49.158;8.632;2023-07-09T03:45:11;100710.09;;;29.24;36.38
19150;BME280;9707;49.158;8.632;2023-07-09T03:47:37;100706.66;;;29.22;36.50
19150;BME280;9707;49.158;8.632;2023-07-09T03:50:02;100714.88;;;29.22;36.65
19150;BME280;9707;49.158;8.632;2023-07-09T03:52:27;100710.44;;;29.21;36.42
19150;BME280;9707;49.158;8.632;2023-07-09T03:54:53;100721.41;;;29.21;36.61
19150;BME280;9707;49.158;8.632;2023-07-09T03:57:18;100715.09;;;29.20;36.58
19150;BME280;9707;49.158;8.632;2023-07-09T03:59:43;100716.28;;;29.18;36.68
19150;BME280;9707;49.158;8.632;2023-07-09T04:02:08;100716.28;;;29.18;36.62
19150;BME280;9707;49.158;8.632;2023-07-09T04:04:34;100719.03;;;29.18;36.44
19150;BME280;9707;49.158;8.632;2023-07-09T04:06:59;100720.03;;;29.17;36.58
19150;BME280;9707;49.158;8.632;2023-07-09T04:09:24;100728.25;;;29.17;36.49
19150;BME280;9707;49.158;8.632;2023-07-09T04:11:49;100723.81;;;29.16;36.52
19150;BME280;9707;49.158;8.632;2023-07-09T04:14:15;100720.38;;;29.14;36.42
19150;BME280;9707;49.158;8.632;2023-07-09T04:16:40;100726.72;;;29.14;36.68
19150;BME280;9707;49.158;8.632;2023-07-09T04:19:05;100725.00;;;29.13;36.85
19150;BME280;9707;49.158;8.632;2023-07-09T04:21:30;100723.28;;;29.12;36.77
19150;BME280;9707;49.158;8.632;2023-07-09T04:23:56;100735.13;;;29.13;36.85
19150;BME280;9707;49.158;8.632;2023-07-09T04:26:21;100722.41;;;29.12;36.67
19150;BME280;9707;49.158;8.632;2023-07-09T04:28:48;100730.66;;;29.12;36.68
19150;BME280;9707;49.158;8.632;2023-07-09T04:31:13;100731.69;;;29.11;36.81
19150;BME280;9707;49.158;8.632;2023-07-09T04:33:39;100727.22;;;29.10;36.69
19150;BME280;9707;49.158;8.632;2023-07-09T04:36:04;100727.22;;;29.10;36.66
19150;BME280;9707;49.158;8.632;2023-07-09T04:38:31;100727.22;;;29.10;36.68
19150;BME280;9707;49.158;8.632;2023-07-09T04:40:56;100723.63;;;29.09;36.65
19150;BME280;9707;49.158;8.632;2023-07-09T04:43:22;100728.25;;;29.09;36.86
19150;BME280;9707;49.158;8.632;2023-07-09T04:45:47;100733.75;;;29.09;36.86
19150;BME280;9707;49.158;8.632;2023-07-09T04:48:13;100735.47;;;29.10;36.89
19150;BME280;9707;49.158;8.632;2023-07-09T04:50:38;100736.50;;;29.09;36.92
19150;BME280;9707;49.158;8.632;2023-07-09T04:53:05;100738.22;;;29.10;36.83
19150;BME280;9707;49.158;8.632;2023-07-09T04:55:31;100731.16;;;29.07;36.99
19150;BME280;9707;49.158;8.632;2023-07-09T04:57:57;100734.78;;;29.08;37.01
19150;BME280;9707;49.158;8.632;2023-07-09T05:00:22;100739.25;;;29.09;36.92
19150;BME280;9707;49.158;8.632;2023-07-09T05:02:48;100744.72;;;29.09;36.78
19150;BME280;9707;49.158;8.632;2023-07-09T05:05:13;100745.75;;;29.08;36.88
19150;BME280;9707;49.158;8.632;2023-07-09T05:07:39;100743.00;;;29.08;37.11
19150;BME280;9707;49.158;8.632;2023-07-09T05:10:06;100754.00;;;29.08;36.92
19150;BME280;9707;49.158;8.632;2023-07-09T05:12:31;100746.75;;;29.07;36.98
19150;BME280;9707;49.158;8.632;2023-07-09T05:14:57;100746.75;;;29.07;36.86
19150;BME280;9707;49.158;8.632;2023-07-09T05:17:23;100740.28;;;29.08;37.10
19150;BME280;9707;49.158;8.632;2023-07-09T05:19:49;100748.31;;;29.09;37.06
19150;BME280;9707;49.158;8.632;2023-07-09T05:22:14;100750.22;;;29.09;37.23
19150;BME280;9707;49.158;8.632;2023-07-09T05:24:40;100749.34;;;29.08;36.75
19150;BME280;9707;49.158;8.632;2023-07-09T05:27:05;100739.25;;;29.09;37.03
19150;BME280;9707;49.158;8.632;2023-07-09T05:29:30;100751.06;;;29.09;37.10
19150;BME280;9707;49.158;8.632;2023-07-09T05:31:56;100762.03;;;29.09;37.18
19150;BME280;9707;49.158;8.632;2023-07-09T05:34:21;100754.81;;;29.08;37.41
19150;BME280;9707;49.158;8.632;2023-07-09T05:36:46;100754.81;;;29.08;37.22
19150;BME280;9707;49.158;8.632;2023-07-09T05:39:12;100754.00;;;29.08;37.11
19150;BME280;9707;49.158;8.632;2023-07-09T05:41:37;100766.66;;;29.09;37.02
19150;BME280;9707;49.158;8.632;2023-07-09T05:44:02;100758.28;;;29.10;36.95
19150;BME280;9707;49.158;8.632;2023-07-09T05:46:28;100753.63;;;29.11;36.77
19150;BME280;9707;49.158;8.632;2023-07-09T05:48:53;100753.47;;;29.12;37.02
19150;BME280;9707;49.158;8.632;2023-07-09T05:51:19;100750.72;;;29.12;36.96
19150;BME280;9707;49.158;8.632;2023-07-09T05:53:46;100756.06;;;29.14;36.75
19150;BME280;9707;49.158;8.632;2023-07-09T05:56:11;100756.06;;;29.14;36.60
19150;BME280;9707;49.158;8.632;2023-07-09T05:58:37;100749.69;;;29.13;36.60
19150;BME280;9707;49.158;8.632;2023-07-09T06:01:02;100752.13;;;29.16;36.67
19150;BME280;9707;49.158;8.632;2023-07-09T06:03:29;100752.94;;;29.17;36.55
19150;BME280;9707;49.158;8.632;2023-07-09T06:05:55;100755.53;;;29.18;36.60
19150;BME280;9707;49.158;8.632;2023-07-09T06:08:22;100752.78;;;29.18;36.67
19150;BME280;9707;49.158;8.632;2023-07-09T06:10:59;100757.25;;;29.19;36.53
19150;BME280;9707;49.158;8.632;2023-07-09T06:13:25;100761.03;;;29.18;37.22
19150;BME280;9707;49.158;8.632;2023-07-09T06:15:53;100756.41;;;29.19;36.97
19150;BME280;9707;49.158;8.632;2023-07-09T06:18:20;100764.47;;;29.20;37.22
19150;BME280;9707;49.158;8.632;2023-07-09T06:20:47;100758.13;;;29.20;36.93
19150;BME280;9707;49.158;8.632;2023-07-09T06:23:13;100759.81;;;29.21;36.89
19150;BME280;9707;49.158;8.632;2023-07-09T06:25:39;100761.53;;;29.22;37.18
19150;BME280;9707;49.158;8.632;2023-07-09T06:28:04;100760.69;;;29.21;37.33
19150;BME280;9707;49.158;8.632;2023-07-09T06:30:29;100763.28;;;29.23;37.18
19150;BME280;9707;49.158;8.632;2023-07-09T06:32:54;100759.50;;;29.24;37.50
19150;BME280;9707;49.158;8.632;2023-07-09T06:35:20;100755.72;;;29.25;37.37
19150;BME280;9707;49.158;8.632;2023-07-09T06:37:45;100766.53;;;29.26;37.62
19150;BME280;9707;49.158;8.632;2023-07-09T06:40:10;100764.63;;;29.27;37.85
19150;BME280;9707;49.158;8.632;2023-07-09T06:42:37;100759.13;;;29.27;38.25
19150;BME280;9707;49.158;8.632;2023-07-09T06:45:03;100757.09;;;29.29;37.94
19150;BME280;9707;49.158;8.632;2023-07-09T06:47:29;100755.03;;;29.31;37.91
19150;BME280;9707;49.158;8.632;2023-07-09T06:49:55;100750.41;;;29.31;37.81
19150;BME280;9707;49.158;8.632;2023-07-09T06:52:20;100758.44;;;29.33;38.05
19150;BME280;9707;49.158;8.632;2023-07-09T06:54:45;100754.72;;;29.34;37.79
19150;BME280;9707;49.158;8.632;2023-07-09T06:57:10;100769.09;;;29.36;37.78
19150;BME280;9707;49.158;8.632;2023-07-09T06:59:36;100757.09;;;29.37;38.15
19150;BME280;9707;49.158;8.632;2023-07-09T07:02:01;100765.84;;;29.40;38.26
19150;BME280;9707;49.158;8.632;2023-07-09T07:04:26;100755.72;;;29.41;38.17
19150;BME280;9707;49.158;8.632;2023-07-09T07:06:52;100756.41;;;29.43;38.27
19150;BME280;9707;49.158;8.632;2023-07-09T07:09:17;100748.88;;;29.45;38.07
19150;BME280;9707;49.158;8.632;2023-07-09T07:11:43;100754.19;;;29.46;38.19
19150;BME280;9707;49.158;8.632;2023-07-09T07:14:08;100754.88;;;29.48;37.60
19150;BME280;9707;49.158;8.632;2023-07-09T07:16:34;100742.03;;;29.49;37.74
19150;BME280;9707;49.158;8.632;2023-07-09T07:18:59;100743.56;;;29.51;37.95
19150;BME280;9707;49.158;8.632;2023-07-09T07:21:24;100743.22;;;29.54;38.93
19150;BME280;9707;49.158;8.632;2023-07-09T07:23:49;100741.19;;;29.56;38.76
19150;BME280;9707;49.158;8.632;2023-07-09T07:26:15;100743.75;;;29.58;38.67
19150;BME280;9707;49.158;8.632;2023-07-09T07:28:40;100741.00;;;29.58;38.67
19150;BME280;9707;49.158;8.632;2023-07-09T07:31:08;100740.84;;;29.59;38.05
19150;BME280;9707;49.158;8.632;2023-07-09T07:33:35;100743.25;;;29.62;38.41
19150;BME280;9707;49.158;8.632;2023-07-09T07:36:00;100737.75;;;29.62;38.25
19150;BME280;9707;49.158;8.632;2023-07-09T07:38:25;100740.34;;;29.64;38.77
19150;BME280;9707;49.158;8.632;2023-07-09T07:40:51;100736.38;;;29.66;38.64
19150;BME280;9707;49.158;8.632;2023-07-09T07:43:16;100742.72;;;29.67;38.03
19150;BME280;9707;49.158;8.632;2023-07-09T07:45:42;100745.28;;;29.68;37.85
19150;BME280;9707;49.158;8.632;2023-07-09T07:48:08;100731.56;;;29.68;38.16
19150;BME280;9707;49.158;8.632;2023-07-09T07:50:34;100730.34;;;29.71;37.67
19150;BME280;9707;49.158;8.632;2023-07-09T07:52:59;100727.28;;;29.74;38.18
19150;BME280;9707;49.158;8.632;2023-07-09T07:55:25;100722.47;;;29.76;38.43
19150;BME280;9707;49.158;8.632;2023-07-09T07:57:50;100732.41;;;29.77;38.33
19150;BME280;9707;49.158;8.632;2023-07-09T08:00:18;100720.38;;;29.78;38.11
19150;BME280;9707;49.158;8.632;2023-07-09T08:02:43;100726.56;;;29.80;37.97
19150;BME280;9707;49.158;8.632;2023-07-09T08:05:09;100727.25;;;29.82;37.55
19150;BME280;9707;49.158;8.632;2023-07-09T08:07:34;100721.59;;;29.83;37.45
19150;BME280;9707;49.158;8.632;2023-07-09T08:09:59;100723.13;;;29.86;37.39
19150;BME280;9707;49.158;8.632;2023-07-09T08:12:25;100731.03;;;29.89;36.87
19150;BME280;9707;49.158;8.632;2023-07-09T08:14:50;100716.94;;;29.92;36.98
19150;BME280;9707;49.158;8.632;2023-07-09T08:17:15;100725.16;;;29.92;37.08
19150;BME280;9707;49.158;8.632;2023-07-09T08:19:49;100714.88;;;29.94;37.01
19150;BME280;9707;49.158;8.632;2023-07-09T08:22:15;100711.09;;;29.95;36.99
19150;BME280;9707;49.158;8.632;2023-07-09T08:24:41;100713.69;;;29.96;37.06
19150;BME280;9707;49.158;8.632;2023-07-09T08:27:07;100714.34;;;29.98;37.00
19150;BME280;9707;49.158;8.632;2023-07-09T08:29:32;100715.88;;;30.01;37.10
19150;BME280;9707;49.158;8.632;2023-07-09T08:31:58;100713.81;;;30.03;37.05
19150;BME280;9707;49.158;8.632;2023-07-09T08:34:23;100711.06;;;30.03;36.67
19150;BME280;9707;49.158;8.632;2023-07-09T08:36:48;100710.72;;;30.06;36.21
19150;BME280;9707;49.158;8.632;2023-07-09T08:39:13;100712.44;;;30.07;36.08
19150;BME280;9707;49.158;8.632;2023-07-09T08:41:45;100715.69;;;30.10;36.01
19150;BME280;9707;49.158;8.632;2023-07-09T08:47:06;100703.50;;;30.13;36.26
19150;BME280;9707;49.158;8.632;2023-07-09T08:49:49;100707.97;;;30.14;36.34
19150;BME280;9707;49.158;8.632;2023-07-09T08:54:57;100716.53;;;30.19;35.83
19150;BME280;9707;49.158;8.632;2023-07-09T08:57:27;100712.56;;;30.21;36.06
19150;BME280;9707;49.158;8.632;2023-07-09T09:00:02;100710.53;;;30.23;35.70
19150;BME280;9707;49.158;8.632;2023-07-09T09:02:38;100717.56;;;30.26;35.62
19150;BME280;9707;49.158;8.632;2023-07-09T09:05:05;100709.97;;;30.28;35.93
19150;BME280;9707;49.158;8.632;2023-07-09T09:07:43;100704.31;;;30.29;35.75
19150;BME280;9707;49.158;8.632;2023-07-09T09:10:23;100708.59;;;30.32;35.45
19150;BME280;9707;49.158;8.632;2023-07-09T09:13:02;100701.00;;;30.34;35.51
19150;BME280;9707;49.158;8.632;2023-07-09T09:15:31;100700.69;;;30.37;35.00
19150;BME280;9707;49.158;8.632;2023-07-09T09:18:04;100706.00;;;30.38;35.00
19150;BME280;9707;49.158;8.632;2023-07-09T09:20:34;100696.53;;;30.41;35.58
19150;BME280;9707;49.158;8.632;2023-07-09T09:23:15;100696.38;;;30.42;35.49
19150;BME280;9707;49.158;8.632;2023-07-09T09:25:43;100697.91;;;30.45;35.61
19150;BME280;9707;49.158;8.632;2023-07-09T09:28:12;100705.09;;;30.46;35.42
19150;BME280;9707;49.158;8.632;2023-07-09T09:30:38;100697.34;;;30.49;35.96
19150;BME280;9707;49.158;8.632;2023-07-09T09:33:09;100700.59;;;30.53;35.75
19150;BME280;9707;49.158;8.632;2023-07-09T09:35:38;100703.00;;;30.56;35.68
19150;BME280;9707;49.158;8.632;2023-07-09T09:38:20;100691.81;;;30.57;34.49
19150;BME280;9707;49.158;8.632;2023-07-09T09:40:47;100703.31;;;30.61;34.99
19150;BME280;9707;49.158;8.632;2023-07-09T09:43:18;100700.38;;;30.62;34.07
19150;BME280;9707;49.158;8.632;2023-07-09T09:45:47;100697.44;;;30.64;33.87
19150;BME280;9707;49.158;8.632;2023-07-09T09:48:27;100689.91;;;30.66;34.38
19150;BME280;9707;49.158;8.632;2023-07-09T09:50:52;100693.16;;;30.69;34.93
19150;BME280;9707;49.158;8.632;2023-07-09T09:53:22;100684.91;;;30.69;34.27
19150;BME280;9707;49.158;8.632;2023-07-09T09:55:48;100687.31;;;30.72;33.73
19150;BME280;9707;49.158;8.632;2023-07-09T09:58:17;100689.84;;;30.74;33.85
19150;BME280;9707;49.158;8.632;2023-07-09T10:00:54;100684.16;;;30.75;34.10
19150;BME280;9707;49.158;8.632;2023-07-09T10:03:20;100687.59;;;30.77;33.94
19150;BME280;9707;49.158;8.632;2023-07-09T10:05:52;100684.66;;;30.79;34.01
19150;BME280;9707;49.158;8.632;2023-07-09T10:08:44;100679.84;;;30.81;33.98
19150;BME280;9707;49.158;8.632;2023-07-09T10:11:20;100673.13;;;30.83;33.38
19150;BME280;9707;49.158;8.632;2023-07-09T10:13:47;100662.97;;;30.84;33.93
19150;BME280;9707;49.158;8.632;2023-07-09T10:16:17;100673.63;;;30.87;33.34
19150;BME280;9707;49.158;8.632;2023-07-09T10:18:53;100657.78;;;30.89;33.09
19150;BME280;9707;49.158;8.632;2023-07-09T10:21:39;100659.47;;;30.90;33.63
19150;BME280;9707;49.158;8.632;2023-07-09T10:30:29;100657.03;;;30.95;33.31
19150;BME280;9707;49.158;8.632;2023-07-09T10:35:37;100654.59;;;31.00;33.10
19150;BME280;9707;49.158;8.632;2023-07-09T10:39:07;100652.53;;;31.02;32.94
19150;BME280;9707;49.158;8.632;2023-07-09T10:41:02;100652.16;;;31.05;33.19
19150;BME280;9707;49.158;8.632;2023-07-09T10:43:36;100641.13;;;31.05;32.34
19150;BME280;9707;49.158;8.632;2023-07-09T10:46:07;100640.78;;;31.08;32.70
19150;BME280;9707;49.158;8.632;2023-07-09T10:48:39;100646.75;;;31.11;32.92
19150;BME280;9707;49.158;8.632;2023-07-09T10:51:16;100644.69;;;31.13;32.45
19150;BME280;9707;49.158;8.632;2023-07-09T10:53:49;100630.56;;;31.16;32.10
19150;BME280;9707;49.158;8.632;2023-07-09T10:56:24;100629.31;;;31.19;32.09
19150;BME280;9707;49.158;8.632;2023-07-09T10:59:03;100627.44;;;31.19;31.61
19150;BME280;9707;49.158;8.632;2023-07-09T11:04:48;100610.06;;;31.19;31.98
19150;BME280;9707;49.158;8.632;2023-07-09T11:07:20;100616.94;;;31.23;32.25
19150;BME280;9707;49.158;8.632;2023-07-09T11:09:48;100608.31;;;31.26;32.19
19150;BME280;9707;49.158;8.632;2023-07-09T11:12:28;100617.06;;;31.29;32.88
19150;BME280;9707;49.158;8.632;2023-07-09T11:15:02;100615.84;;;31.32;32.45
19150;BME280;9707;49.158;8.632;2023-07-09T11:17:29;100612.69;;;31.35;32.59
19150;BME280;9707;49.158;8.632;2023-07-09T11:19:58;100609.56;;;31.38;32.26
19150;BME280;9707;49.158;8.632;2023-07-09T11:22:35;100612.97;;;31.40;32.24
19150;BME280;9707;49.158;8.632;2023-07-09T11:25:13;100615.72;;;31.40;32.30
19150;BME280;9707;49.158;8.632;2023-07-09T11:30:25;100601.22;;;31.46;31.67
19150;BME280;9707;49.158;8.632;2023-07-09T11:33:14;100601.22;;;31.46;30.41
19150;BME280;9707;49.158;8.632;2023-07-09T11:35:52;100601.72;;;31.49;31.13
19150;BME280;9707;49.158;8.632;2023-07-09T11:38:21;100601.50;;;31.51;30.98
19150;BME280;9707;49.158;8.632;2023-07-09T11:40:56;100601.31;;;31.52;30.93
19150;BME280;9707;49.158;8.632;2023-07-09T11:43:35;100596.28;;;31.56;30.92
19150;BME280;9707;49.158;8.632;2023-07-09T11:46:22;100588.88;;;31.56;30.76
19150;BME280;9707;49.158;8.632;2023-07-09T11:48:51;100587.84;;;31.57;30.74
19150;BME280;9707;49.158;8.632;2023-07-09T11:51:22;100581.50;;;31.57;30.48
19150;BME280;9707;49.158;8.632;2023-07-09T11:53:52;100587.00;;;31.57;30.88
19150;BME280;9707;49.158;8.632;2023-07-09T11:56:21;100592.50;;;31.57;30.42
19150;BME280;9707;49.158;8.632;2023-07-09T11:59:06;100591.28;;;31.59;30.89
19150;BME280;9707;49.158;8.632;2023-07-09T12:01:43;100584.53;;;31.62;30.72
19150;BME280;9707;49.158;8.632;2023-07-09T12:04:17;100580.72;;;31.63;30.14
19150;BME280;9707;49.158;8.632;2023-07-09T12:06:44;100580.34;;;31.66;30.84
19150;BME280;9707;49.158;8.632;2023-07-09T12:09:16;100577.41;;;31.67;29.23
19150;BME280;9707;49.158;8.632;2023-07-09T12:11:45;100570.00;;;31.68;30.07
19150;BME280;9707;49.158;8.632;2023-07-09T12:14:14;100563.44;;;31.69;29.70
19150;BME280;9707;49.158;8.632;2023-07-09T12:16:42;100568.59;;;31.72;28.88
19150;BME280;9707;49.158;8.632;2023-07-09T12:19:10;100566.50;;;31.74;29.71
19150;BME280;9707;49.158;8.632;2023-07-09T12:21:39;100565.09;;;31.78;29.52
19150;BME280;9707;49.158;8.632;2023-07-09T12:24:17;100555.97;;;31.77;27.71
19150;BME280;9707;49.158;8.632;2023-07-09T12:26:43;100552.16;;;31.78;27.70
19150;BME280;9707;49.158;8.632;2023-07-09T12:29:09;100550.91;;;31.81;27.58
19150;BME280;9707;49.158;8.632;2023-07-09T12:31:35;100537.81;;;31.83;27.63
19150;BME280;9707;49.158;8.632;2023-07-09T12:34:00;100539.16;;;31.87;27.14
19150;BME280;9707;49.158;8.632;2023-07-09T12:36:26;100529.25;;;31.92;27.58
19150;BME280;9707;49.158;8.632;2023-07-09T12:38:55;100528.00;;;31.95;28.01
19150;BME280;9707;49.158;8.632;2023-07-09T12:41:43;100515.94;;;31.96;27.63
19150;BME280;9707;49.158;8.632;2023-07-09T12:44:17;100521.06;;;31.99;27.63
19150;BME280;9707;49.158;8.632;2023-07-09T12:46:44;100517.25;;;32.00;27.76
19150;BME280;9707;49.158;8.632;2023-07-09T12:51:45;100515.84;;;32.04;27.73
19150;BME280;9707;49.158;8.632;2023-07-09T12:54:16;100505.47;;;32.06;27.24
19150;BME280;9707;49.158;8.632;2023-07-09T12:56:42;100505.09;;;32.09;27.23
19150;BME280;9707;49.158;8.632;2023-07-09T12:59:19;100504.31;;;32.15;26.75
19150;BME280;9707;49.158;8.632;2023-07-09T13:01:59;100503.69;;;32.19;26.86
19150;BME280;9707;49.158;8.632;2023-07-09T13:04:32;100489.34;;;32.24;28.34
19150;BME280;9707;49.158;8.632;2023-07-09T13:06:58;100487.44;;;32.24;27.22
19150;BME280;9707;49.158;8.632;2023-07-09T13:09:25;100490.69;;;32.28;27.03
19150;BME280;9707;49.158;8.632;2023-07-09T13:11:51;100486.03;;;32.28;26.96
19150;BME280;9707;49.158;8.632;2023-07-09T13:14:29;100478.63;;;32.29;27.02
19150;BME280;9707;49.158;8.632;2023-07-09T13:17:09;100473.75;;;32.31;27.65
19150;BME280;9707;49.158;8.632;2023-07-09T13:19:37;100479.94;;;32.33;27.14
19150;BME280;9707;49.158;8.632;2023-07-09T13:22:04;100479.53;;;32.36;27.90
19150;BME280;9707;49.158;8.632;2023-07-09T13:24:31;100476.59;;;32.37;27.21
19150;BME280;9707;49.158;8.632;2023-07-09T13:26:58;100475.34;;;32.40;26.85
19150;BME280;9707;49.158;8.632;2023-07-09T13:29:24;100473.22;;;32.42;27.46